createdAt,value
2016-08-21T00:00:21.433Z,1011.46
2016-08-21T00:01:21.388Z,1011.44
2016-08-21T00:02:21.358Z,1011.44
2016-08-21T00:03:21.301Z,1011.51
2016-08-21T00:04:21.250Z,1011.48
2016-08-21T00:05:21.204Z,1011.47
2016-08-21T00:06:21.157Z,1011.48
2016-08-21T00:07:21.114Z,1011.44
2016-08-21T00:08:21.064Z,1011.44
2016-08-21T00:09:21.021Z,1011.43
2016-08-21T00:10:20.974Z,1011.43
2016-08-21T00:11:20.937Z,1011.47
2016-08-21T00:12:20.884Z,1011.4
2016-08-21T00:13:20.837Z,1011.43
2016-08-21T00:14:20.787Z,1011.44
2016-08-21T00:15:20.740Z,1011.46
2016-08-21T00:16:20.705Z,1011.43
2016-08-21T00:17:20.654Z,1011.43
2016-08-21T00:18:20.603Z,1011.45
2016-08-21T00:19:20.559Z,1011.46
2016-08-21T00:20:20.512Z,1011.47
2016-08-21T00:21:20.463Z,1011.48
2016-08-21T00:22:20.630Z,1011.44
2016-08-21T00:23:20.575Z,1011.41
2016-08-21T00:24:20.324Z,1011.42
2016-08-21T00:25:20.283Z,1011.43
2016-08-21T00:26:20.232Z,1011.41
2016-08-21T00:27:20.183Z,1011.41
2016-08-21T00:28:20.136Z,1011.44
2016-08-21T00:29:20.290Z,1011.39
2016-08-21T00:30:20.650Z,1011.45
2016-08-21T00:31:20.004Z,1011.44
2016-08-21T00:32:19.954Z,1011.42
2016-08-21T00:33:19.913Z,1011.41
2016-08-21T00:34:19.862Z,1011.45
2016-08-21T00:35:19.814Z,1011.44
2016-08-21T00:36:19.775Z,1011.46
2016-08-21T00:37:19.720Z,1011.46
2016-08-21T00:38:19.682Z,1011.43
2016-08-21T00:39:19.630Z,1011.48
2016-08-21T00:40:19.582Z,1011.46
2016-08-21T00:41:19.543Z,1011.47
2016-08-21T00:42:19.690Z,1011.45
2016-08-21T00:43:19.643Z,1011.54
2016-08-21T00:44:19.394Z,1011.51
2016-08-21T00:45:19.353Z,1011.5
2016-08-21T00:46:19.303Z,1011.5
2016-08-21T00:47:19.264Z,1011.51
2016-08-21T00:48:19.213Z,1011.47
2016-08-21T00:49:19.171Z,1011.45
2016-08-21T00:50:19.121Z,1011.49
2016-08-21T00:51:19.072Z,1011.48
2016-08-21T00:52:19.028Z,1011.47
2016-08-21T00:53:19.179Z,1011.49
2016-08-21T00:54:18.933Z,1011.47
2016-08-21T00:55:18.886Z,1011.46
2016-08-21T00:56:18.842Z,1011.49
2016-08-21T00:57:18.788Z,1011.45
2016-08-21T00:58:18.744Z,1011.46
2016-08-21T00:59:18.897Z,1011.43
2016-08-21T01:00:18.653Z,1011.43
2016-08-21T01:01:18.609Z,1011.41
2016-08-21T01:02:18.564Z,1011.44
2016-08-21T01:03:18.513Z,1011.42
2016-08-21T01:04:18.482Z,1011.42
2016-08-21T01:05:18.424Z,1011.43
2016-08-21T01:06:18.373Z,1011.39
2016-08-21T01:07:18.324Z,1011.41
2016-08-21T01:08:19.273Z,1011.41
2016-08-21T01:09:18.241Z,1011.38
2016-08-21T01:10:18.393Z,1011.35
2016-08-21T01:11:18.145Z,1011.39
2016-08-21T01:12:18.094Z,1011.36
2016-08-21T01:13:18.045Z,1011.35
2016-08-21T01:14:18.005Z,1011.36
2016-08-21T01:15:17.954Z,1011.41
2016-08-21T01:16:17.913Z,1011.39
2016-08-21T01:17:17.863Z,1011.41
2016-08-21T01:18:17.817Z,1011.42
2016-08-21T01:19:17.764Z,1011.41
2016-08-21T01:20:17.721Z,1011.41
2016-08-21T01:21:17.677Z,1011.47
2016-08-21T01:22:17.627Z,1011.44
2016-08-21T01:23:17.583Z,1011.43
2016-08-21T01:24:17.535Z,1011.47
2016-08-21T01:25:17.487Z,1011.46
2016-08-21T01:26:17.442Z,1011.47
2016-08-21T01:27:17.402Z,1011.51
2016-08-21T01:28:17.354Z,1011.54
2016-08-21T01:29:17.307Z,1011.54
2016-08-21T01:30:17.278Z,1011.51
2016-08-21T01:31:17.212Z,1011.5
2016-08-21T01:32:17.165Z,1011.52
2016-08-21T01:33:17.118Z,1011.56
2016-08-21T01:34:17.073Z,1011.54
2016-08-21T01:35:17.227Z,1011.55
2016-08-21T01:36:16.977Z,1011.52
2016-08-21T01:37:16.940Z,1011.55
2016-08-21T01:38:16.884Z,1011.51
2016-08-21T01:39:16.846Z,1011.53
2016-08-21T01:40:16.993Z,1011.54
2016-08-21T01:41:16.754Z,1011.56
2016-08-21T01:42:16.732Z,1011.52
2016-08-21T01:43:16.653Z,1011.54
2016-08-21T01:44:16.624Z,1011.51
2016-08-21T01:45:16.564Z,1011.52
2016-08-21T01:46:16.513Z,1011.54
2016-08-21T01:47:16.471Z,1011.52
2016-08-21T01:48:16.421Z,1011.51
2016-08-21T01:49:16.374Z,1011.49
2016-08-21T01:50:16.331Z,1011.53
2016-08-21T01:51:16.282Z,1011.51
2016-08-21T01:52:16.233Z,1011.56
2016-08-21T01:53:16.191Z,1011.51
2016-08-21T01:54:16.155Z,1011.56
2016-08-21T01:55:16.100Z,1011.59
2016-08-21T01:56:16.252Z,1011.54
2016-08-21T01:57:16.004Z,1011.53
2016-08-21T01:58:15.959Z,1011.52
2016-08-21T01:59:15.909Z,1011.54
2016-08-21T02:00:15.872Z,1011.55
2016-08-21T02:01:15.821Z,1011.55
2016-08-21T02:02:15.774Z,1011.5
2016-08-21T02:03:15.727Z,1011.54
2016-08-21T02:04:15.680Z,1011.6
2016-08-21T02:05:15.633Z,1011.57
2016-08-21T02:06:15.587Z,1011.56
2016-08-21T02:07:15.538Z,1011.56
2016-08-21T02:08:15.493Z,1011.56
2016-08-21T02:09:15.449Z,1011.56
2016-08-21T02:10:15.403Z,1011.55
2016-08-21T02:11:15.358Z,1011.54
2016-08-21T02:12:15.313Z,1011.53
2016-08-21T02:13:15.263Z,1011.55
2016-08-21T02:14:15.213Z,1011.55
2016-08-21T02:15:15.170Z,1011.56
2016-08-21T02:16:15.123Z,1011.58
2016-08-21T02:17:15.074Z,1011.6
2016-08-21T02:18:15.026Z,1011.56
2016-08-21T02:19:14.981Z,1011.56
2016-08-21T02:20:14.935Z,1011.6
2016-08-21T02:21:14.887Z,1011.64
2016-08-21T02:22:14.841Z,1011.59
2016-08-21T02:23:14.803Z,1011.6
2016-08-21T02:24:14.753Z,1011.63
2016-08-21T02:25:14.703Z,1011.63
2016-08-21T02:26:14.655Z,1011.63
2016-08-21T02:27:14.609Z,1011.63
2016-08-21T02:28:14.769Z,1011.62
2016-08-21T02:29:14.514Z,1011.58
2016-08-21T02:30:14.469Z,1011.6
2016-08-21T02:31:14.422Z,1011.61
2016-08-21T02:32:14.375Z,1011.57
2016-08-21T02:33:14.328Z,1011.57
2016-08-21T02:34:14.282Z,1011.54
2016-08-21T02:35:14.242Z,1011.58
2016-08-21T02:36:14.192Z,1011.58
2016-08-21T02:37:14.145Z,1011.57
2016-08-21T02:38:14.096Z,1011.59
2016-08-21T02:39:14.053Z,1011.59
2016-08-21T02:40:14.012Z,1011.58
2016-08-21T02:41:13.965Z,1011.6
2016-08-21T02:42:14.113Z,1011.62
2016-08-21T02:43:13.864Z,1011.58
2016-08-21T02:44:13.822Z,1011.59
2016-08-21T02:45:13.770Z,1011.59
2016-08-21T02:46:13.724Z,1011.61
2016-08-21T02:47:13.675Z,1011.64
2016-08-21T02:48:13.632Z,1011.62
2016-08-21T02:49:13.592Z,1011.62
2016-08-21T02:50:13.544Z,1011.62
2016-08-21T02:51:13.492Z,1011.62
2016-08-21T02:52:13.443Z,1011.62
2016-08-21T02:53:13.404Z,1011.63
2016-08-21T02:54:13.353Z,1011.65
2016-08-21T02:55:13.314Z,1011.66
2016-08-21T02:56:13.261Z,1011.63
2016-08-21T02:57:13.214Z,1011.66
2016-08-21T02:58:13.167Z,1011.64
2016-08-21T02:59:13.119Z,1011.65
2016-08-21T03:00:13.082Z,1011.68
2016-08-21T03:01:13.027Z,1011.68
2016-08-21T03:02:12.982Z,1011.69
2016-08-21T03:03:13.136Z,1011.72
2016-08-21T03:04:12.895Z,1011.71
2016-08-21T03:05:12.847Z,1011.7
2016-08-21T03:06:12.793Z,1011.74
2016-08-21T03:07:12.747Z,1011.74
2016-08-21T03:08:12.701Z,1011.72
2016-08-21T03:09:12.658Z,1011.76
2016-08-21T03:10:12.609Z,1011.73
2016-08-21T03:11:12.583Z,1011.76
2016-08-21T03:12:12.515Z,1011.76
2016-08-21T03:13:12.482Z,1011.76
2016-08-21T03:14:12.422Z,1011.76
2016-08-21T03:15:12.377Z,1011.77
2016-08-21T03:16:12.338Z,1011.77
2016-08-21T03:17:12.290Z,1011.8
2016-08-21T03:18:12.242Z,1011.81
2016-08-21T03:19:12.197Z,1011.84
2016-08-21T03:20:12.144Z,1011.84
2016-08-21T03:21:12.099Z,1011.84
2016-08-21T03:22:12.052Z,1011.83
2016-08-21T03:23:12.005Z,1011.89
2016-08-21T03:24:11.959Z,1011.86
2016-08-21T03:25:11.913Z,1011.9
2016-08-21T03:26:11.872Z,1011.88
2016-08-21T03:27:11.823Z,1011.93
2016-08-21T03:28:11.773Z,1011.89
2016-08-21T03:29:11.724Z,1011.89
2016-08-21T03:30:11.682Z,1011.93
2016-08-21T03:31:11.632Z,1011.9
2016-08-21T03:32:11.592Z,1011.9
2016-08-21T03:33:11.555Z,1011.9
2016-08-21T03:34:11.496Z,1011.94
2016-08-21T03:35:11.448Z,1011.91
2016-08-21T03:36:11.402Z,1011.88
2016-08-21T03:37:11.354Z,1011.9
2016-08-21T03:38:11.306Z,1011.91
2016-08-21T03:39:11.464Z,1011.9
2016-08-21T03:40:11.213Z,1011.92
2016-08-21T03:41:11.172Z,1011.88
2016-08-21T03:42:11.124Z,1011.87
2016-08-21T03:43:11.075Z,1011.93
2016-08-21T03:44:11.028Z,1011.9
2016-08-21T03:45:10.979Z,1011.9
2016-08-21T03:46:10.941Z,1011.93
2016-08-21T03:47:10.893Z,1011.92
2016-08-21T03:48:10.843Z,1011.83
2016-08-21T03:49:10.797Z,1011.9
2016-08-21T03:50:10.754Z,1011.9
2016-08-21T03:51:10.911Z,1011.96
2016-08-21T03:52:10.660Z,1011.93
2016-08-21T03:53:10.613Z,1011.93
2016-08-21T03:54:10.578Z,1011.96
2016-08-21T03:55:10.518Z,1011.96
2016-08-21T03:56:10.470Z,1011.89
2016-08-21T03:57:10.424Z,1011.91
2016-08-21T03:58:10.379Z,1011.91
2016-08-21T03:59:10.331Z,1011.85
2016-08-21T04:00:10.290Z,1011.88
2016-08-21T04:01:10.241Z,1011.88
2016-08-21T04:02:10.191Z,1011.92
2016-08-21T04:03:10.345Z,1011.91
2016-08-21T04:04:10.298Z,1011.88
2016-08-21T04:05:10.054Z,1011.9
2016-08-21T04:06:10.207Z,1011.87
2016-08-21T04:07:09.961Z,1011.91
2016-08-21T04:08:09.911Z,1011.91
2016-08-21T04:09:09.871Z,1011.94
2016-08-21T04:10:09.822Z,1011.96
2016-08-21T04:11:09.771Z,1011.96
2016-08-21T04:12:09.729Z,1011.92
2016-08-21T04:13:09.680Z,1011.92
2016-08-21T04:14:09.835Z,1011.9
2016-08-21T04:15:09.592Z,1011.9
2016-08-21T04:16:09.950Z,1011.89
2016-08-21T04:17:09.500Z,1011.89
2016-08-21T04:18:09.448Z,1011.91
2016-08-21T04:19:09.401Z,1011.9
2016-08-21T04:20:09.362Z,1011.9
2016-08-21T04:21:09.313Z,1011.95
2016-08-21T04:22:09.262Z,1011.96
2016-08-21T04:23:09.213Z,1011.91
2016-08-21T04:24:09.368Z,1011.94
2016-08-21T04:25:09.121Z,1011.9
2016-08-21T04:26:09.276Z,1011.92
2016-08-21T04:27:09.026Z,1011.9
2016-08-21T04:28:09.182Z,1011.95
2016-08-21T04:29:08.933Z,1011.93
2016-08-21T04:30:08.893Z,1011.96
2016-08-21T04:31:08.843Z,1011.93
2016-08-21T04:32:08.802Z,1011.91
2016-08-21T04:33:09.153Z,1011.96
2016-08-21T04:34:08.704Z,1011.96
2016-08-21T04:35:08.650Z,1011.93
2016-08-21T04:36:08.614Z,1011.93
2016-08-21T04:37:08.562Z,1011.93
2016-08-21T04:38:08.523Z,1011.95
2016-08-21T04:39:08.473Z,1011.97
2016-08-21T04:40:08.425Z,1011.98
2016-08-21T04:41:08.378Z,1011.99
2016-08-21T04:42:08.338Z,1011.97
2016-08-21T04:43:08.282Z,1011.97
2016-08-21T04:44:08.231Z,1011.96
2016-08-21T04:45:08.199Z,1011.96
2016-08-21T04:46:08.142Z,1011.95
2016-08-21T04:47:08.093Z,1011.94
2016-08-21T04:48:08.044Z,1011.95
2016-08-21T04:49:08.003Z,1012.01
2016-08-21T04:50:08.159Z,1011.99
2016-08-21T04:51:07.913Z,1011.95
2016-08-21T04:52:07.862Z,1012.02
2016-08-21T04:53:07.813Z,1012.02
2016-08-21T04:54:07.765Z,1012.03
2016-08-21T04:55:07.720Z,1012.03
2016-08-21T04:56:07.691Z,1012.03
2016-08-21T04:57:07.673Z,1012.04
2016-08-21T04:58:07.677Z,1012
2016-08-21T04:59:07.742Z,1012.07
2016-08-21T05:00:07.495Z,1012.05
2016-08-21T05:01:07.437Z,1012.08
2016-08-21T05:02:07.390Z,1012.03
2016-08-21T05:03:07.342Z,1012.03
2016-08-21T05:04:07.302Z,1012.03
2016-08-21T05:05:07.253Z,1012.06
2016-08-21T05:06:07.203Z,1012.04
2016-08-21T05:07:07.155Z,1012.06
2016-08-21T05:08:07.110Z,1012.04
2016-08-21T05:09:07.062Z,1012.04
2016-08-21T05:10:07.022Z,1012.1
2016-08-21T05:11:06.972Z,1012.06
2016-08-21T05:12:07.124Z,1012.04
2016-08-21T05:13:06.871Z,1012.06
2016-08-21T05:14:06.857Z,1012.07
2016-08-21T05:15:06.782Z,1012.04
2016-08-21T05:16:06.737Z,1012.05
2016-08-21T05:17:06.690Z,1012.05
2016-08-21T05:18:06.641Z,1012.08
2016-08-21T05:19:06.593Z,1012.05
2016-08-21T05:20:06.751Z,1012.04
2016-08-21T05:21:06.498Z,1012.07
2016-08-21T05:22:06.449Z,1012.05
2016-08-21T05:23:06.407Z,1012.08
2016-08-21T05:24:06.355Z,1012.06
2016-08-21T05:25:06.311Z,1012.03
2016-08-21T05:26:06.264Z,1012.07
2016-08-21T05:27:06.220Z,1012.06
2016-08-21T05:28:06.172Z,1012.06
2016-08-21T05:29:06.121Z,1012.09
2016-08-21T05:30:06.077Z,1012.02
2016-08-21T05:31:06.025Z,1012.08
2016-08-21T05:32:05.980Z,1012.07
2016-08-21T05:33:05.930Z,1012.1
2016-08-21T05:34:05.898Z,1012.11
2016-08-21T05:35:06.040Z,1012.14
2016-08-21T05:36:05.799Z,1012.11
2016-08-21T05:37:05.952Z,1012.1
2016-08-21T05:38:05.699Z,1012.13
2016-08-21T05:39:05.651Z,1012.12
2016-08-21T05:40:05.606Z,1012.14
2016-08-21T05:41:05.562Z,1012.16
2016-08-21T05:42:05.512Z,1012.17
2016-08-21T05:43:05.469Z,1012.19
2016-08-21T05:44:05.421Z,1012.17
2016-08-21T05:45:05.373Z,1012.15
2016-08-21T05:46:05.322Z,1012.13
2016-08-21T05:47:05.282Z,1012.15
2016-08-21T05:48:05.233Z,1012.17
2016-08-21T05:49:05.190Z,1012.15
2016-08-21T05:50:05.138Z,1012.18
2016-08-21T05:51:05.089Z,1012.15
2016-08-21T05:52:05.043Z,1012.18
2016-08-21T05:53:04.999Z,1012.18
2016-08-21T05:54:04.951Z,1012.21
2016-08-21T05:55:04.913Z,1012.23
2016-08-21T05:56:04.863Z,1012.2
2016-08-21T05:57:04.811Z,1012.2
2016-08-21T05:58:04.761Z,1012.23
2016-08-21T05:59:04.714Z,1012.24
2016-08-21T06:00:04.681Z,1012.27
2016-08-21T06:01:04.622Z,1012.26
2016-08-21T06:02:04.581Z,1012.3
2016-08-21T06:03:04.532Z,1012.28
2016-08-21T06:04:04.482Z,1012.28
2016-08-21T06:05:04.436Z,1012.28
2016-08-21T06:06:04.392Z,1012.26
2016-08-21T06:07:04.351Z,1012.3
2016-08-21T06:08:04.302Z,1012.29
2016-08-21T06:09:04.261Z,1012.29
2016-08-21T06:10:04.204Z,1012.31
2016-08-21T06:11:04.164Z,1012.28
2016-08-21T06:12:04.110Z,1012.34
2016-08-21T06:13:04.066Z,1012.3
2016-08-21T06:14:04.019Z,1012.31
2016-08-21T06:15:03.969Z,1012.35
2016-08-21T06:16:03.923Z,1012.33
2016-08-21T06:17:03.881Z,1012.31
2016-08-21T06:18:03.849Z,1012.33
2016-08-21T06:19:03.791Z,1012.31
2016-08-21T06:20:03.741Z,1012.34
2016-08-21T06:21:03.707Z,1012.34
2016-08-21T06:22:03.640Z,1012.36
2016-08-21T06:23:03.596Z,1012.39
2016-08-21T06:24:03.553Z,1012.34
2016-08-21T06:25:03.502Z,1012.35
2016-08-21T06:26:03.453Z,1012.33
2016-08-21T06:27:03.409Z,1012.33
2016-08-21T06:28:03.358Z,1012.38
2016-08-21T06:29:03.318Z,1012.37
2016-08-21T06:30:03.269Z,1012.34
2016-08-21T06:31:03.222Z,1012.32
2016-08-21T06:32:03.174Z,1012.35
2016-08-21T06:33:03.125Z,1012.33
2016-08-21T06:34:03.080Z,1012.32
2016-08-21T06:35:03.033Z,1012.3
2016-08-21T06:36:02.988Z,1012.3
2016-08-21T06:37:02.943Z,1012.33
2016-08-21T06:38:02.893Z,1012.36
2016-08-21T06:39:02.852Z,1012.39
2016-08-21T06:40:02.800Z,1012.34
2016-08-21T06:41:02.754Z,1012.3
2016-08-21T06:42:02.714Z,1012.35
2016-08-21T06:43:02.683Z,1012.4
2016-08-21T06:44:02.622Z,1012.39
2016-08-21T06:45:02.630Z,1012.36
2016-08-21T06:46:02.719Z,1012.41
2016-08-21T06:47:02.471Z,1012.47
2016-08-21T06:48:02.429Z,1012.41
2016-08-21T06:49:02.383Z,1012.5
2016-08-21T06:50:02.334Z,1012.43
2016-08-21T06:51:02.290Z,1012.43
2016-08-21T06:52:02.245Z,1012.46
2016-08-21T06:53:02.195Z,1012.5
2016-08-21T06:54:02.149Z,1012.42
2016-08-21T06:55:02.104Z,1012.45
2016-08-21T06:56:02.065Z,1012.44
2016-08-21T06:57:02.007Z,1012.53
2016-08-21T06:58:01.959Z,1012.45
2016-08-21T06:59:01.915Z,1012.52
2016-08-21T07:00:01.863Z,1012.49
2016-08-21T07:01:01.824Z,1012.43
2016-08-21T07:02:01.769Z,1012.43
2016-08-21T07:03:01.723Z,1012.49
2016-08-21T07:04:01.676Z,1012.45
2016-08-21T07:05:01.631Z,1012.47
2016-08-21T07:06:01.784Z,1012.45
2016-08-21T07:07:01.537Z,1012.41
2016-08-21T07:08:01.491Z,1012.47
2016-08-21T07:09:01.445Z,1012.44
2016-08-21T07:10:01.393Z,1012.44
2016-08-21T07:11:01.549Z,1012.44
2016-08-21T07:12:01.505Z,1012.46
2016-08-21T07:13:01.459Z,1012.44
2016-08-21T07:14:01.412Z,1012.43
2016-08-21T07:15:01.162Z,1012.49
2016-08-21T07:16:01.116Z,1012.44
2016-08-21T07:17:01.075Z,1012.4
2016-08-21T07:18:01.023Z,1012.44
2016-08-21T07:19:00.985Z,1012.51
2016-08-21T07:20:00.928Z,1012.55
2016-08-21T07:21:00.880Z,1012.52
2016-08-21T07:22:00.841Z,1012.5
2016-08-21T07:23:00.792Z,1012.55
2016-08-21T07:24:00.745Z,1012.52
2016-08-21T07:25:00.696Z,1012.54
2016-08-21T07:26:00.651Z,1012.51
2016-08-21T07:27:00.602Z,1012.47
2016-08-21T07:28:00.560Z,1012.62
2016-08-21T07:29:00.511Z,1012.52
2016-08-21T07:30:00.463Z,1012.47
2016-08-21T07:31:00.426Z,1012.54
2016-08-21T07:32:00.373Z,1012.46
2016-08-21T07:33:00.323Z,1012.52
2016-08-21T07:34:00.276Z,1012.54
2016-08-21T07:35:00.231Z,1012.49
2016-08-21T07:36:00.193Z,1012.55
2016-08-21T07:37:00.140Z,1012.55
2016-08-21T07:38:00.093Z,1012.61
2016-08-21T07:39:00.043Z,1012.54
2016-08-21T07:39:59.995Z,1012.55
2016-08-21T07:40:59.962Z,1012.57
2016-08-21T07:41:59.915Z,1012.58
2016-08-21T07:42:59.861Z,1012.57
2016-08-21T07:43:59.812Z,1012.61
2016-08-21T07:44:59.764Z,1012.65
2016-08-21T07:45:59.722Z,1012.6
2016-08-21T07:46:59.676Z,1012.62
2016-08-21T07:47:59.633Z,1012.52
2016-08-21T07:48:59.582Z,1012.57
2016-08-21T07:49:59.539Z,1012.57
2016-08-21T07:50:59.489Z,1012.57
2016-08-21T07:51:59.443Z,1012.54
2016-08-21T07:52:59.410Z,1012.58
2016-08-21T07:53:59.352Z,1012.62
2016-08-21T07:54:59.306Z,1012.63
2016-08-21T07:55:59.262Z,1012.61
2016-08-21T07:56:59.213Z,1012.69
2016-08-21T07:57:59.173Z,1012.68
2016-08-21T07:58:59.123Z,1012.71
2016-08-21T07:59:59.071Z,1012.72
2016-08-21T08:00:59.230Z,1012.76
2016-08-21T08:01:58.983Z,1012.75
2016-08-21T08:02:58.942Z,1012.82
2016-08-21T08:03:58.888Z,1012.77
2016-08-21T08:04:58.842Z,1012.82
2016-08-21T08:05:58.803Z,1012.77
2016-08-21T08:06:58.752Z,1012.78
2016-08-21T08:07:58.707Z,1012.83
2016-08-21T08:08:58.655Z,1012.86
2016-08-21T08:09:58.817Z,1012.84
2016-08-21T08:10:58.568Z,1012.9
2016-08-21T08:11:58.525Z,1012.94
2016-08-21T08:12:58.471Z,1012.97
2016-08-21T08:13:58.438Z,1012.99
2016-08-21T08:14:58.392Z,1013.01
2016-08-21T08:15:58.336Z,1013
2016-08-21T08:16:58.298Z,1013.05
2016-08-21T08:17:58.245Z,1013.03
2016-08-21T08:18:58.197Z,1013.03
2016-08-21T08:19:58.581Z,1013.03
2016-08-21T08:20:58.103Z,1013.06
2016-08-21T08:21:58.060Z,1013.07
2016-08-21T08:22:58.012Z,1013.12
2016-08-21T08:23:57.961Z,1013.09
2016-08-21T08:24:57.916Z,1013.08
2016-08-21T08:25:57.878Z,1013.12
2016-08-21T08:26:57.825Z,1013.13
2016-08-21T08:27:57.778Z,1013.11
2016-08-21T08:28:57.735Z,1013.18
2016-08-21T08:29:57.684Z,1013.17
2016-08-21T08:30:57.863Z,1013.17
2016-08-21T08:31:57.592Z,1013.13
2016-08-21T08:32:57.553Z,1013.24
2016-08-21T08:33:57.498Z,1013.23
2016-08-21T08:34:57.454Z,1013.26
2016-08-21T08:35:57.405Z,1013.23
2016-08-21T08:36:57.381Z,1013.31
2016-08-21T08:37:57.312Z,1013.28
2016-08-21T08:38:57.288Z,1013.3
2016-08-21T08:39:57.219Z,1013.34
2016-08-21T08:40:57.178Z,1013.3
2016-08-21T08:41:57.124Z,1013.32
2016-08-21T08:42:57.084Z,1013.35
2016-08-21T08:43:57.251Z,1013.36
2016-08-21T08:44:56.987Z,1013.35
2016-08-21T08:45:56.944Z,1013.3
2016-08-21T08:46:56.907Z,1013.34
2016-08-21T08:47:56.843Z,1013.29
2016-08-21T08:48:56.797Z,1013.31
2016-08-21T08:49:56.753Z,1013.32
2016-08-21T08:50:56.704Z,1013.34
2016-08-21T08:51:56.662Z,1013.3
2016-08-21T08:52:56.637Z,1013.36
2016-08-21T08:53:56.557Z,1013.35
2016-08-21T08:54:56.516Z,1013.39
2016-08-21T08:55:56.470Z,1013.41
2016-08-21T08:56:56.417Z,1013.46
2016-08-21T08:57:56.374Z,1013.46
2016-08-21T08:58:56.324Z,1013.46
2016-08-21T08:59:56.289Z,1013.46
2016-08-21T09:00:56.234Z,1013.46
2016-08-21T09:01:56.202Z,1013.42
2016-08-21T09:02:56.134Z,1013.38
2016-08-21T09:03:56.086Z,1013.42
2016-08-21T09:04:56.041Z,1013.42
2016-08-21T09:05:56.194Z,1013.44
2016-08-21T09:06:55.946Z,1013.42
2016-08-21T09:07:55.898Z,1013.48
2016-08-21T09:08:55.853Z,1013.42
2016-08-21T09:09:55.802Z,1013.51
2016-08-21T09:10:55.752Z,1013.47
2016-08-21T09:11:55.715Z,1013.47
2016-08-21T09:12:55.655Z,1013.47
2016-08-21T09:13:55.610Z,1013.49
2016-08-21T09:14:55.560Z,1013.42
2016-08-21T09:15:55.524Z,1013.47
2016-08-21T09:16:55.669Z,1013.44
2016-08-21T09:17:55.439Z,1013.51
2016-08-21T09:18:55.382Z,1013.49
2016-08-21T09:19:55.324Z,1013.46
2016-08-21T09:20:55.278Z,1013.45
2016-08-21T09:21:55.231Z,1013.43
2016-08-21T09:22:55.185Z,1013.46
2016-08-21T09:23:55.144Z,1013.48
2016-08-21T09:24:55.093Z,1013.51
2016-08-21T09:25:55.044Z,1013.48
2016-08-21T09:26:55.003Z,1013.54
2016-08-21T09:27:55.153Z,1013.54
2016-08-21T09:28:54.898Z,1013.52
2016-08-21T09:29:54.849Z,1013.54
2016-08-21T09:30:54.803Z,1013.52
2016-08-21T09:31:54.762Z,1013.59
2016-08-21T09:32:54.709Z,1013.57
2016-08-21T09:33:54.665Z,1013.57
2016-08-21T09:34:54.622Z,1013.57
2016-08-21T09:35:54.573Z,1013.59
2016-08-21T09:36:54.522Z,1013.55
2016-08-21T09:37:54.471Z,1013.57
2016-08-21T09:38:54.466Z,1013.58
2016-08-21T09:39:54.377Z,1013.61
2016-08-21T09:40:54.334Z,1013.6
2016-08-21T09:41:54.284Z,1013.59
2016-08-21T09:42:54.243Z,1013.64
2016-08-21T09:43:54.388Z,1013.59
2016-08-21T09:44:54.146Z,1013.62
2016-08-21T09:45:54.093Z,1013.59
2016-08-21T09:46:54.046Z,1013.61
2016-08-21T09:47:54.011Z,1013.64
2016-08-21T09:48:53.955Z,1013.64
2016-08-21T09:49:53.903Z,1013.64
2016-08-21T09:50:53.855Z,1013.6
2016-08-21T09:51:53.814Z,1013.57
2016-08-21T09:52:53.765Z,1013.63
2016-08-21T09:53:53.715Z,1013.66
2016-08-21T09:54:53.873Z,1013.68
2016-08-21T09:55:53.621Z,1013.63
2016-08-21T09:56:53.578Z,1013.7
2016-08-21T09:57:53.530Z,1013.72
2016-08-21T09:58:53.483Z,1013.61
2016-08-21T09:59:53.430Z,1013.65
2016-08-21T10:00:53.388Z,1013.65
2016-08-21T10:01:53.342Z,1013.69
2016-08-21T10:02:53.289Z,1013.72
2016-08-21T10:03:53.246Z,1013.69
2016-08-21T10:04:53.200Z,1013.65
2016-08-21T10:05:53.158Z,1013.74
2016-08-21T10:06:53.102Z,1013.68
2016-08-21T10:07:53.061Z,1013.71
2016-08-21T10:08:53.011Z,1013.67
2016-08-21T10:09:52.961Z,1013.61
2016-08-21T10:10:52.912Z,1013.65
2016-08-21T10:11:52.876Z,1013.7
2016-08-21T10:12:52.821Z,1013.63
2016-08-21T10:13:52.778Z,1013.68
2016-08-21T10:14:52.737Z,1013.75
2016-08-21T10:15:52.682Z,1013.74
2016-08-21T10:16:52.634Z,1013.75
2016-08-21T10:17:52.592Z,1013.77
2016-08-21T10:18:52.544Z,1013.72
2016-08-21T10:19:52.491Z,1013.73
2016-08-21T10:20:52.685Z,1013.75
2016-08-21T10:21:52.611Z,1013.71
2016-08-21T10:22:52.362Z,1013.75
2016-08-21T10:23:52.311Z,1013.79
2016-08-21T10:24:52.263Z,1013.73
2016-08-21T10:25:52.216Z,1013.69
2016-08-21T10:26:52.174Z,1013.71
2016-08-21T10:27:52.132Z,1013.78
2016-08-21T10:28:52.075Z,1013.81
2016-08-21T10:29:52.435Z,1013.78
2016-08-21T10:30:51.982Z,1013.77
2016-08-21T10:31:51.934Z,1013.88
2016-08-21T10:32:51.891Z,1013.75
2016-08-21T10:33:51.853Z,1013.77
2016-08-21T10:34:51.803Z,1013.85
2016-08-21T10:35:51.754Z,1013.76
2016-08-21T10:36:51.704Z,1013.86
2016-08-21T10:37:51.655Z,1013.72
2016-08-21T10:38:51.808Z,1013.87
2016-08-21T10:39:51.567Z,1013.88
2016-08-21T10:40:51.520Z,1013.8
2016-08-21T10:41:51.473Z,1013.82
2016-08-21T10:42:51.428Z,1013.72
2016-08-21T10:43:51.384Z,1013.82
2016-08-21T10:44:51.334Z,1013.8
2016-08-21T10:45:51.894Z,1013.85
2016-08-21T10:46:51.240Z,1013.83
2016-08-21T10:47:51.212Z,1013.85
2016-08-21T10:48:51.353Z,1013.85
2016-08-21T10:49:51.105Z,1013.86
2016-08-21T10:50:51.057Z,1013.87
2016-08-21T10:51:51.411Z,1013.93
2016-08-21T10:52:50.963Z,1013.89
2016-08-21T10:53:50.925Z,1013.82
2016-08-21T10:54:50.874Z,1013.93
2016-08-21T10:55:50.829Z,1013.89
2016-08-21T10:56:50.783Z,1013.88
2016-08-21T10:57:50.742Z,1013.84
2016-08-21T10:58:50.693Z,1013.89
2016-08-21T10:59:50.643Z,1013.89
2016-08-21T11:00:50.619Z,1013.9
2016-08-21T11:01:50.551Z,1013.92
2016-08-21T11:02:50.515Z,1013.95
2016-08-21T11:03:50.463Z,1013.97
2016-08-21T11:04:50.425Z,1014.01
2016-08-21T11:05:50.375Z,1014
2016-08-21T11:06:50.332Z,1013.98
2016-08-21T11:07:50.292Z,1014.07
2016-08-21T11:08:50.240Z,1014.01
2016-08-21T11:09:50.194Z,1014
2016-08-21T11:10:50.140Z,1013.98
2016-08-21T11:11:50.101Z,1014.01
2016-08-21T11:12:50.049Z,1013.95
2016-08-21T11:13:50.632Z,1014.03
2016-08-21T11:14:49.962Z,1014
2016-08-21T11:15:49.911Z,1014
2016-08-21T11:16:49.872Z,1014.04
2016-08-21T11:17:49.831Z,1014.02
2016-08-21T11:18:49.775Z,1014.02
2016-08-21T11:19:49.733Z,1014
2016-08-21T11:20:49.887Z,1014.03
2016-08-21T11:21:49.634Z,1014.03
2016-08-21T11:22:49.796Z,1014.01
2016-08-21T11:23:50.152Z,1014.08
2016-08-21T11:24:49.502Z,1014.05
2016-08-21T11:25:49.460Z,1013.99
2016-08-21T11:26:49.410Z,1014.05
2016-08-21T11:27:49.363Z,1014.03
2016-08-21T11:28:49.321Z,1014
2016-08-21T11:29:49.286Z,1014.02
2016-08-21T11:30:49.223Z,1014.1
2016-08-21T11:31:49.185Z,1014.1
2016-08-21T11:32:49.135Z,1014.02
2016-08-21T11:33:49.095Z,1014.08
2016-08-21T11:34:49.042Z,1014.03
2016-08-21T11:35:48.995Z,1014.15
2016-08-21T11:36:48.956Z,1014.14
2016-08-21T11:37:48.904Z,1014.09
2016-08-21T11:38:48.866Z,1014.14
2016-08-21T11:39:48.820Z,1014.12
2016-08-21T11:40:48.776Z,1014.08
2016-08-21T11:41:48.729Z,1014.13
2016-08-21T11:42:48.682Z,1014.12
2016-08-21T11:43:48.639Z,1014.14
2016-08-21T11:44:48.586Z,1014.12
2016-08-21T11:45:48.548Z,1014.16
2016-08-21T11:46:48.501Z,1014.1
2016-08-21T11:47:48.459Z,1014.1
2016-08-21T11:48:48.416Z,1014.1
2016-08-21T11:49:48.368Z,1014.09
2016-08-21T11:50:48.318Z,1014.13
2016-08-21T11:51:48.277Z,1014.08
2016-08-21T11:52:48.429Z,1014.11
2016-08-21T11:53:48.187Z,1014.13
2016-08-21T11:54:48.140Z,1014.12
2016-08-21T11:55:48.096Z,1014.18
2016-08-21T11:56:48.051Z,1014.24
2016-08-21T11:57:48.044Z,1014.21
2016-08-21T11:58:47.961Z,1014.18
2016-08-21T11:59:47.920Z,1014.26
2016-08-21T12:00:47.905Z,1014.27
2016-08-21T12:01:47.831Z,1014.29
2016-08-21T12:02:47.779Z,1014.2
2016-08-21T12:03:47.739Z,1014.21
2016-08-21T12:04:47.691Z,1014.19
2016-08-21T12:05:47.649Z,1014.19
2016-08-21T12:06:47.609Z,1014.24
2016-08-21T12:07:47.561Z,1014.24